sensor_id;sensor_type;location;lat;lon;timestamp;P1;durP1;ratioP1;P2;durP2;ratioP2
65636;SDS011;52327;42.622;23.316;2023-08-06T00:00:20;0.90;;;0.63;;
65636;SDS011;52327;42.622;23.316;2023-08-06T00:02:46;1.95;;;1.25;;
65636;SDS011;52327;42.622;23.316;2023-08-06T00:05:11;0.60;;;0.60;;
65636;SDS011;52327;42.622;23.316;2023-08-06T00:07:37;3.53;;;1.23;;
65636;SDS011;52327;42.622;23.316;2023-08-06T00:10:02;2.42;;;0.90;;
65636;SDS011;52327;42.622;23.316;2023-08-06T00:12:28;1.08;;;0.90;;
65636;SDS011;52327;42.622;23.316;2023-08-06T00:14:54;2.90;;;1.48;;
65636;SDS011;52327;42.622;23.316;2023-08-06T00:17:19;3.08;;;1.63;;
65636;SDS011;52327;42.622;23.316;2023-08-06T00:19:45;3.97;;;1.13;;
65636;SDS011;52327;42.622;23.316;2023-08-06T00:22:10;1.95;;;0.98;;
65636;SDS011;52327;42.622;23.316;2023-08-06T00:24:36;1.42;;;0.90;;
65636;SDS011;52327;42.622;23.316;2023-08-06T00:27:01;1.23;;;1.08;;
65636;SDS011;52327;42.622;23.316;2023-08-06T00:29:28;1.10;;;1.00;;
65636;SDS011;52327;42.622;23.316;2023-08-06T00:31:53;1.05;;;0.95;;
65636;SDS011;52327;42.622;23.316;2023-08-06T00:34:27;0.93;;;0.70;;
65636;SDS011;52327;42.622;23.316;2023-08-06T00:36:52;1.48;;;1.00;;
65636;SDS011;52327;42.622;23.316;2023-08-06T00:39:19;0.65;;;0.50;;
65636;SDS011;52327;42.622;23.316;2023-08-06T00:41:44;1.95;;;1.23;;
65636;SDS011;52327;42.622;23.316;2023-08-06T00:44:10;0.63;;;0.57;;
65636;SDS011;52327;42.622;23.316;2023-08-06T00:46:39;0.70;;;0.63;;
65636;SDS011;52327;42.622;23.316;2023-08-06T00:49:08;1.33;;;0.73;;
65636;SDS011;52327;42.622;23.316;2023-08-06T00:51:33;1.48;;;0.77;;
65636;SDS011;52327;42.622;23.316;2023-08-06T00:53:59;0.82;;;0.65;;
65636;SDS011;52327;42.622;23.316;2023-08-06T00:56:25;1.73;;;1.25;;
65636;SDS011;52327;42.622;23.316;2023-08-06T00:58:51;4.55;;;0.93;;
65636;SDS011;52327;42.622;23.316;2023-08-06T01:01:17;1.50;;;0.90;;
65636;SDS011;52327;42.622;23.316;2023-08-06T01:03:42;0.77;;;0.77;;
65636;SDS011;52327;42.622;23.316;2023-08-06T01:06:08;0.52;;;0.30;;
65636;SDS011;52327;42.622;23.316;2023-08-06T01:08:54;0.60;;;0.50;;
65636;SDS011;52327;42.622;23.316;2023-08-06T01:11:52;1.80;;;1.13;;
65636;SDS011;52327;42.622;23.316;2023-08-06T01:14:21;0.53;;;0.53;;
65636;SDS011;52327;42.622;23.316;2023-08-06T01:16:53;2.00;;;1.55;;
65636;SDS011;52327;42.622;23.316;2023-08-06T01:19:20;1.17;;;0.80;;
65636;SDS011;52327;42.622;23.316;2023-08-06T01:21:46;0.30;;;0.30;;
65636;SDS011;52327;42.622;23.316;2023-08-06T01:24:12;1.08;;;0.73;;
65636;SDS011;52327;42.622;23.316;2023-08-06T01:27:13;0.75;;;0.50;;
65636;SDS011;52327;42.622;23.316;2023-08-06T01:29:42;0.70;;;0.60;;
65636;SDS011;52327;42.622;23.316;2023-08-06T01:32:24;0.57;;;0.57;;
65636;SDS011;52327;42.622;23.316;2023-08-06T01:34:51;0.60;;;0.50;;
65636;SDS011;52327;42.622;23.316;2023-08-06T01:37:19;0.50;;;0.50;;
65636;SDS011;52327;42.622;23.316;2023-08-06T01:39:45;1.20;;;0.35;;
65636;SDS011;52327;42.622;23.316;2023-08-06T01:42:10;1.17;;;0.70;;
65636;SDS011;52327;42.622;23.316;2023-08-06T01:44:36;1.65;;;0.50;;
65636;SDS011;52327;42.622;23.316;2023-08-06T01:47:03;0.88;;;0.35;;
65636;SDS011;52327;42.622;23.316;2023-08-06T01:49:28;1.58;;;0.80;;
65636;SDS011;52327;42.622;23.316;2023-08-06T01:51:54;0.45;;;0.43;;
65636;SDS011;52327;42.622;23.316;2023-08-06T01:54:19;0.82;;;0.80;;
65636;SDS011;52327;42.622;23.316;2023-08-06T01:56:48;1.48;;;0.98;;
65636;SDS011;52327;42.622;23.316;2023-08-06T01:59:13;1.08;;;0.68;;
65636;SDS011;52327;42.622;23.316;2023-08-06T02:01:39;1.25;;;1.15;;
65636;SDS011;52327;42.622;23.316;2023-08-06T02:04:04;1.35;;;0.90;;
65636;SDS011;52327;42.622;23.316;2023-08-06T02:06:30;1.10;;;0.80;;
65636;SDS011;52327;42.622;23.316;2023-08-06T02:08:55;2.60;;;1.15;;
65636;SDS011;52327;42.622;23.316;2023-08-06T02:11:21;2.08;;;1.30;;
65636;SDS011;52327;42.622;23.316;2023-08-06T02:13:46;1.25;;;0.75;;
65636;SDS011;52327;42.622;23.316;2023-08-06T02:16:12;1.77;;;1.30;;
65636;SDS011;52327;42.622;23.316;2023-08-06T02:18:37;1.98;;;0.95;;
65636;SDS011;52327;42.622;23.316;2023-08-06T02:21:03;2.15;;;1.08;;
65636;SDS011;52327;42.622;23.316;2023-08-06T02:23:28;0.80;;;0.55;;
65636;SDS011;52327;42.622;23.316;2023-08-06T02:25:58;0.98;;;0.63;;
65636;SDS011;52327;42.622;23.316;2023-08-06T02:28:23;1.77;;;0.68;;
65636;SDS011;52327;42.622;23.316;2023-08-06T02:30:49;1.30;;;0.60;;
65636;SDS011;52327;42.622;23.316;2023-08-06T02:33:18;1.52;;;0.95;;
65636;SDS011;52327;42.622;23.316;2023-08-06T02:35:43;0.80;;;0.60;;
65636;SDS011;52327;42.622;23.316;2023-08-06T02:38:09;1.13;;;0.80;;
65636;SDS011;52327;42.622;23.316;2023-08-06T02:40:34;0.73;;;0.50;;
65636;SDS011;52327;42.622;23.316;2023-08-06T02:43:00;1.02;;;0.57;;
65636;SDS011;52327;42.622;23.316;2023-08-06T02:45:25;1.08;;;0.52;;
65636;SDS011;52327;42.622;23.316;2023-08-06T02:47:51;1.20;;;0.75;;
65636;SDS011;52327;42.622;23.316;2023-08-06T02:50:16;0.95;;;0.80;;
65636;SDS011;52327;42.622;23.316;2023-08-06T02:52:42;1.25;;;0.63;;
65636;SDS011;52327;42.622;23.316;2023-08-06T02:55:07;1.05;;;0.82;;
65636;SDS011;52327;42.622;23.316;2023-08-06T02:57:33;0.80;;;0.70;;
65636;SDS011;52327;42.622;23.316;2023-08-06T02:59:58;0.70;;;0.63;;
65636;SDS011;52327;42.622;23.316;2023-08-06T03:02:24;1.10;;;0.52;;
65636;SDS011;52327;42.622;23.316;2023-08-06T03:04:49;1.75;;;0.68;;
65636;SDS011;52327;42.622;23.316;2023-08-06T03:07:15;0.65;;;0.50;;
65636;SDS011;52327;42.622;23.316;2023-08-06T03:09:40;1.13;;;0.85;;
65636;SDS011;52327;42.622;23.316;2023-08-06T03:12:06;0.90;;;0.80;;
65636;SDS011;52327;42.622;23.316;2023-08-06T03:14:32;0.68;;;0.40;;
65636;SDS011;52327;42.622;23.316;2023-08-06T03:16:57;1.17;;;0.70;;
65636;SDS011;52327;42.622;23.316;2023-08-06T03:19:25;0.32;;;0.32;;
65636;SDS011;52327;42.622;23.316;2023-08-06T03:21:50;0.40;;;0.40;;
65636;SDS011;52327;42.622;23.316;2023-08-06T03:24:16;1.08;;;0.70;;
65636;SDS011;52327;42.622;23.316;2023-08-06T03:26:41;0.52;;;0.47;;
65636;SDS011;52327;42.622;23.316;2023-08-06T03:29:07;1.08;;;0.98;;
65636;SDS011;52327;42.622;23.316;2023-08-06T03:31:32;1.40;;;1.15;;
65636;SDS011;52327;42.622;23.316;2023-08-06T03:33:58;0.68;;;0.55;;
65636;SDS011;52327;42.622;23.316;2023-08-06T03:36:23;0.90;;;0.68;;
65636;SDS011;52327;42.622;23.316;2023-08-06T03:38:49;0.55;;;0.50;;
65636;SDS011;52327;42.622;23.316;2023-08-06T03:41:14;0.73;;;0.57;;
65636;SDS011;52327;42.622;23.316;2023-08-06T03:43:40;0.50;;;0.40;;
65636;SDS011;52327;42.622;23.316;2023-08-06T03:46:06;0.60;;;0.50;;
65636;SDS011;52327;42.622;23.316;2023-08-06T03:48:31;0.95;;;0.55;;
65636;SDS011;52327;42.622;23.316;2023-08-06T03:50:57;0.85;;;0.80;;
65636;SDS011;52327;42.622;23.316;2023-08-06T03:53:22;0.55;;;0.45;;
65636;SDS011;52327;42.622;23.316;2023-08-06T03:55:48;1.10;;;0.88;;
65636;SDS011;52327;42.622;23.316;2023-08-06T03:58:13;0.50;;;0.43;;
65636;SDS011;52327;42.622;23.316;2023-08-06T04:00:39;0.65;;;0.50;;
65636;SDS011;52327;42.622;23.316;2023-08-06T04:03:04;1.05;;;0.77;;
65636;SDS011;52327;42.622;23.316;2023-08-06T04:05:32;0.32;;;0.32;;
65636;SDS011;52327;42.622;23.316;2023-08-06T04:07:58;0.57;;;0.50;;
65636;SDS011;52327;42.622;23.316;2023-08-06T04:17:17;2.65;;;1.42;;
65636;SDS011;52327;42.622;23.316;2023-08-06T04:19:50;0.73;;;0.63;;
65636;SDS011;52327;42.622;23.316;2023-08-06T04:22:22;1.33;;;0.88;;
65636;SDS011;52327;42.622;23.316;2023-08-06T04:25:03;1.38;;;0.90;;
65636;SDS011;52327;42.622;23.316;2023-08-06T04:27:41;1.33;;;0.75;;
65636;SDS011;52327;42.622;23.316;2023-08-06T04:30:18;0.50;;;0.50;;
65636;SDS011;52327;42.622;23.316;2023-08-06T04:33:20;2.65;;;1.85;;
65636;SDS011;52327;42.622;23.316;2023-08-06T04:35:45;2.75;;;1.85;;
65636;SDS011;52327;42.622;23.316;2023-08-06T04:38:11;1.60;;;1.00;;
65636;SDS011;52327;42.622;23.316;2023-08-06T04:40:37;1.33;;;1.13;;
65636;SDS011;52327;42.622;23.316;2023-08-06T04:43:05;0.97;;;0.70;;
65636;SDS011;52327;42.622;23.316;2023-08-06T04:45:31;1.20;;;0.85;;
65636;SDS011;52327;42.622;23.316;2023-08-06T04:47:56;1.42;;;1.05;;
65636;SDS011;52327;42.622;23.316;2023-08-06T04:50:22;2.83;;;1.33;;
65636;SDS011;52327;42.622;23.316;2023-08-06T04:52:47;2.90;;;1.40;;
65636;SDS011;52327;42.622;23.316;2023-08-06T04:55:13;1.33;;;1.00;;
65636;SDS011;52327;42.622;23.316;2023-08-06T04:57:38;2.28;;;1.58;;
65636;SDS011;52327;42.622;23.316;2023-08-06T05:00:04;0.85;;;0.68;;
65636;SDS011;52327;42.622;23.316;2023-08-06T05:02:30;2.35;;;1.27;;
65636;SDS011;52327;42.622;23.316;2023-08-06T05:04:57;1.85;;;1.10;;
65636;SDS011;52327;42.622;23.316;2023-08-06T05:07:23;2.70;;;1.15;;
65636;SDS011;52327;42.622;23.316;2023-08-06T05:09:48;0.95;;;0.50;;
65636;SDS011;52327;42.622;23.316;2023-08-06T05:12:14;1.98;;;1.63;;
65636;SDS011;52327;42.622;23.316;2023-08-06T05:14:39;1.60;;;1.00;;
65636;SDS011;52327;42.622;23.316;2023-08-06T05:17:05;3.05;;;1.52;;
65636;SDS011;52327;42.622;23.316;2023-08-06T05:19:31;0.57;;;0.38;;
65636;SDS011;52327;42.622;23.316;2023-08-06T05:21:56;1.35;;;1.00;;
65636;SDS011;52327;42.622;23.316;2023-08-06T05:24:21;1.45;;;1.35;;
65636;SDS011;52327;42.622;23.316;2023-08-06T05:26:47;1.17;;;0.98;;
65636;SDS011;52327;42.622;23.316;2023-08-06T05:29:12;0.68;;;0.63;;
65636;SDS011;52327;42.622;23.316;2023-08-06T05:31:38;2.50;;;2.13;;
65636;SDS011;52327;42.622;23.316;2023-08-06T05:34:03;1.65;;;1.13;;
65636;SDS011;52327;42.622;23.316;2023-08-06T05:36:29;2.85;;;1.73;;
65636;SDS011;52327;42.622;23.316;2023-08-06T05:38:54;2.85;;;2.08;;
65636;SDS011;52327;42.622;23.316;2023-08-06T05:41:20;2.78;;;1.85;;
65636;SDS011;52327;42.622;23.316;2023-08-06T05:43:45;3.00;;;1.70;;
65636;SDS011;52327;42.622;23.316;2023-08-06T05:46:11;2.85;;;1.80;;
65636;SDS011;52327;42.622;23.316;2023-08-06T05:48:36;2.05;;;1.70;;
65636;SDS011;52327;42.622;23.316;2023-08-06T05:51:01;5.70;;;2.22;;
65636;SDS011;52327;42.622;23.316;2023-08-06T05:53:27;2.10;;;1.90;;
65636;SDS011;52327;42.622;23.316;2023-08-06T05:55:52;4.32;;;1.95;;
65636;SDS011;52327;42.622;23.316;2023-08-06T05:58:18;1.52;;;1.40;;
65636;SDS011;52327;42.622;23.316;2023-08-06T06:00:45;4.72;;;3.05;;
65636;SDS011;52327;42.622;23.316;2023-08-06T06:03:10;3.72;;;3.00;;
65636;SDS011;52327;42.622;23.316;2023-08-06T06:05:39;3.03;;;2.25;;
65636;SDS011;52327;42.622;23.316;2023-08-06T06:08:04;2.95;;;2.35;;
65636;SDS011;52327;42.622;23.316;2023-08-06T06:10:30;2.17;;;1.95;;
65636;SDS011;52327;42.622;23.316;2023-08-06T06:12:55;4.35;;;2.83;;
65636;SDS011;52327;42.622;23.316;2023-08-06T06:15:21;2.88;;;2.55;;
65636;SDS011;52327;42.622;23.316;2023-08-06T06:17:46;3.10;;;2.35;;
65636;SDS011;52327;42.622;23.316;2023-08-06T06:20:12;7.50;;;2.38;;
65636;SDS011;52327;42.622;23.316;2023-08-06T06:22:37;4.00;;;2.85;;
65636;SDS011;52327;42.622;23.316;2023-08-06T06:25:03;4.22;;;3.00;;
65636;SDS011;52327;42.622;23.316;2023-08-06T06:27:29;4.50;;;2.78;;
65636;SDS011;52327;42.622;23.316;2023-08-06T06:29:54;2.72;;;2.38;;
65636;SDS011;52327;42.622;23.316;2023-08-06T06:32:20;3.97;;;2.47;;
65636;SDS011;52327;42.622;23.316;2023-08-06T06:34:46;3.85;;;2.33;;
65636;SDS011;52327;42.622;23.316;2023-08-06T06:37:11;2.67;;;1.63;;
65636;SDS011;52327;42.622;23.316;2023-08-06T06:39:37;3.70;;;2.33;;
65636;SDS011;52327;42.622;23.316;2023-08-06T06:42:02;3.05;;;2.13;;
65636;SDS011;52327;42.622;23.316;2023-08-06T06:44:28;3.67;;;2.15;;
65636;SDS011;52327;42.622;23.316;2023-08-06T06:46:53;4.13;;;3.03;;
65636;SDS011;52327;42.622;23.316;2023-08-06T06:49:19;3.45;;;2.33;;
65636;SDS011;52327;42.622;23.316;2023-08-06T06:51:44;4.28;;;2.70;;
65636;SDS011;52327;42.622;23.316;2023-08-06T06:54:10;2.85;;;1.92;;
65636;SDS011;52327;42.622;23.316;2023-08-06T06:56:36;3.40;;;2.45;;
65636;SDS011;52327;42.622;23.316;2023-08-06T06:59:02;3.40;;;1.98;;
65636;SDS011;52327;42.622;23.316;2023-08-06T07:01:27;2.90;;;1.70;;
65636;SDS011;52327;42.622;23.316;2023-08-06T07:03:53;2.08;;;1.60;;
65636;SDS011;52327;42.622;23.316;2023-08-06T07:06:18;2.05;;;1.60;;
65636;SDS011;52327;42.622;23.316;2023-08-06T07:08:44;1.98;;;1.23;;
65636;SDS011;52327;42.622;23.316;2023-08-06T07:11:10;3.28;;;2.15;;
65636;SDS011;52327;42.622;23.316;2023-08-06T07:13:36;1.88;;;1.58;;
65636;SDS011;52327;42.622;23.316;2023-08-06T07:16:01;1.20;;;0.88;;
65636;SDS011;52327;42.622;23.316;2023-08-06T07:18:27;2.63;;;1.98;;
65636;SDS011;52327;42.622;23.316;2023-08-06T07:20:53;1.95;;;1.00;;
65636;SDS011;52327;42.622;23.316;2023-08-06T07:23:23;2.30;;;1.55;;
65636;SDS011;52327;42.622;23.316;2023-08-06T07:25:50;0.82;;;0.77;;
65636;SDS011;52327;42.622;23.316;2023-08-06T07:28:16;5.40;;;0.90;;
65636;SDS011;52327;42.622;23.316;2023-08-06T07:30:42;1.45;;;0.82;;
65636;SDS011;52327;42.622;23.316;2023-08-06T07:33:08;0.55;;;0.55;;
65636;SDS011;52327;42.622;23.316;2023-08-06T07:35:34;1.05;;;0.77;;
65636;SDS011;52327;42.622;23.316;2023-08-06T07:38:00;0.95;;;0.70;;
65636;SDS011;52327;42.622;23.316;2023-08-06T07:40:26;1.80;;;1.05;;
65636;SDS011;52327;42.622;23.316;2023-08-06T07:42:51;0.45;;;0.35;;
65636;SDS011;52327;42.622;23.316;2023-08-06T07:45:17;1.10;;;0.80;;
65636;SDS011;52327;42.622;23.316;2023-08-06T07:47:43;0.95;;;0.85;;
65636;SDS011;52327;42.622;23.316;2023-08-06T07:50:09;0.90;;;0.77;;
65636;SDS011;52327;42.622;23.316;2023-08-06T07:52:35;0.50;;;0.50;;
65636;SDS011;52327;42.622;23.316;2023-08-06T07:55:00;0.73;;;0.47;;
65636;SDS011;52327;42.622;23.316;2023-08-06T07:57:30;1.33;;;0.80;;
65636;SDS011;52327;42.622;23.316;2023-08-06T07:59:55;0.50;;;0.45;;
65636;SDS011;52327;42.622;23.316;2023-08-06T08:02:21;1.25;;;0.50;;
65636;SDS011;52327;42.622;23.316;2023-08-06T08:04:47;1.00;;;0.73;;
65636;SDS011;52327;42.622;23.316;2023-08-06T08:07:12;0.60;;;0.47;;
65636;SDS011;52327;42.622;23.316;2023-08-06T08:09:38;0.82;;;0.60;;
65636;SDS011;52327;42.622;23.316;2023-08-06T08:12:03;0.73;;;0.70;;
65636;SDS011;52327;42.622;23.316;2023-08-06T08:14:29;0.75;;;0.50;;
65636;SDS011;52327;42.622;23.316;2023-08-06T08:17:00;0.50;;;0.47;;
65636;SDS011;52327;42.622;23.316;2023-08-06T08:19:27;1.10;;;0.98;;
65636;SDS011;52327;42.622;23.316;2023-08-06T08:21:53;1.30;;;0.90;;
65636;SDS011;52327;42.622;23.316;2023-08-06T08:24:19;1.20;;;1.00;;
65636;SDS011;52327;42.622;23.316;2023-08-06T08:26:45;1.88;;;1.35;;
65636;SDS011;52327;42.622;23.316;2023-08-06T08:29:10;1.33;;;1.13;;
65636;SDS011;52327;42.622;23.316;2023-08-06T08:31:36;1.35;;;1.13;;
65636;SDS011;52327;42.622;23.316;2023-08-06T08:34:04;1.67;;;1.30;;
65636;SDS011;52327;42.622;23.316;2023-08-06T08:36:31;1.42;;;1.25;;
65636;SDS011;52327;42.622;23.316;2023-08-06T08:38:56;2.17;;;1.80;;
65636;SDS011;52327;42.622;23.316;2023-08-06T08:41:22;1.58;;;1.48;;
65636;SDS011;52327;42.622;23.316;2023-08-06T08:43:49;2.70;;;1.42;;
65636;SDS011;52327;42.622;23.316;2023-08-06T08:46:16;0.77;;;0.63;;
65636;SDS011;52327;42.622;23.316;2023-08-06T08:48:43;1.45;;;1.33;;
65636;SDS011;52327;42.622;23.316;2023-08-06T08:51:09;1.65;;;1.38;;
65636;SDS011;52327;42.622;23.316;2023-08-06T08:53:36;1.88;;;1.02;;
65636;SDS011;52327;42.622;23.316;2023-08-06T08:56:04;1.45;;;1.35;;
65636;SDS011;52327;42.622;23.316;2023-08-06T08:58:30;1.55;;;1.40;;
65636;SDS011;52327;42.622;23.316;2023-08-06T09:00:56;0.65;;;0.65;;
65636;SDS011;52327;42.622;23.316;2023-08-06T09:03:22;1.52;;;1.00;;
65636;SDS011;52327;42.622;23.316;2023-08-06T09:05:49;1.33;;;1.00;;
65636;SDS011;52327;42.622;23.316;2023-08-06T09:08:18;0.93;;;0.73;;
65636;SDS011;52327;42.622;23.316;2023-08-06T09:10:49;1.33;;;0.68;;
65636;SDS011;52327;42.622;23.316;2023-08-06T09:13:17;0.77;;;0.50;;
65636;SDS011;52327;42.622;23.316;2023-08-06T09:15:42;1.75;;;0.93;;
65636;SDS011;52327;42.622;23.316;2023-08-06T09:18:10;0.82;;;0.75;;
65636;SDS011;52327;42.622;23.316;2023-08-06T09:20:37;0.88;;;0.82;;
65636;SDS011;52327;42.622;23.316;2023-08-06T09:23:08;0.60;;;0.57;;
65636;SDS011;52327;42.622;23.316;2023-08-06T09:25:36;1.33;;;0.90;;
65636;SDS011;52327;42.622;23.316;2023-08-06T09:28:04;0.98;;;0.75;;
65636;SDS011;52327;42.622;23.316;2023-08-06T09:30:30;0.88;;;0.55;;
65636;SDS011;52327;42.622;23.316;2023-08-06T09:33:03;1.70;;;1.10;;
65636;SDS011;52327;42.622;23.316;2023-08-06T09:35:32;3.08;;;1.08;;
65636;SDS011;52327;42.622;23.316;2023-08-06T09:38:07;1.05;;;0.95;;
65636;SDS011;52327;42.622;23.316;2023-08-06T09:40:35;1.27;;;0.73;;
65636;SDS011;52327;42.622;23.316;2023-08-06T09:43:01;1.67;;;0.88;;
65636;SDS011;52327;42.622;23.316;2023-08-06T09:45:33;0.93;;;0.70;;
65636;SDS011;52327;42.622;23.316;2023-08-06T09:48:00;1.45;;;0.80;;
65636;SDS011;52327;42.622;23.316;2023-08-06T09:50:29;1.33;;;0.68;;
65636;SDS011;52327;42.622;23.316;2023-08-06T09:52:56;1.02;;;0.80;;
65636;SDS011;52327;42.622;23.316;2023-08-06T09:55:23;0.50;;;0.50;;
65636;SDS011;52327;42.622;23.316;2023-08-06T09:57:51;1.15;;;0.77;;
65636;SDS011;52327;42.622;23.316;2023-08-06T10:00:17;1.70;;;1.05;;
65636;SDS011;52327;42.622;23.316;2023-08-06T10:02:43;1.50;;;1.13;;
65636;SDS011;52327;42.622;23.316;2023-08-06T10:05:10;1.00;;;0.88;;
65636;SDS011;52327;42.622;23.316;2023-08-06T10:07:35;1.60;;;1.10;;
65636;SDS011;52327;42.622;23.316;2023-08-06T10:10:02;1.42;;;1.00;;
65636;SDS011;52327;42.622;23.316;2023-08-06T10:12:35;2.72;;;1.00;;
65636;SDS011;52327;42.622;23.316;2023-08-06T10:15:06;1.50;;;1.05;;
65636;SDS011;52327;42.622;23.316;2023-08-06T10:17:36;0.68;;;0.55;;
65636;SDS011;52327;42.622;23.316;2023-08-06T10:20:03;0.30;;;0.28;;
65636;SDS011;52327;42.622;23.316;2023-08-06T10:22:32;1.38;;;0.95;;
65636;SDS011;52327;42.622;23.316;2023-08-06T10:24:58;0.80;;;0.65;;
65636;SDS011;52327;42.622;23.316;2023-08-06T10:33:00;1.00;;;0.75;;
65636;SDS011;52327;42.622;23.316;2023-08-06T10:35:34;1.13;;;1.00;;
65636;SDS011;52327;42.622;23.316;2023-08-06T10:38:10;1.85;;;1.05;;
65636;SDS011;52327;42.622;23.316;2023-08-06T10:40:39;1.70;;;1.27;;
65636;SDS011;52327;42.622;23.316;2023-08-06T10:43:05;0.70;;;0.70;;
65636;SDS011;52327;42.622;23.316;2023-08-06T10:45:36;1.48;;;1.27;;
65636;SDS011;52327;42.622;23.316;2023-08-06T10:48:03;1.45;;;0.70;;
65636;SDS011;52327;42.622;23.316;2023-08-06T10:50:29;2.40;;;1.15;;
65636;SDS011;52327;42.622;23.316;2023-08-06T10:52:56;4.85;;;0.93;;
65636;SDS011;52327;42.622;23.316;2023-08-06T10:55:24;1.85;;;1.20;;
65636;SDS011;52327;42.622;23.316;2023-08-06T10:57:51;1.02;;;0.90;;
65636;SDS011;52327;42.622;23.316;2023-08-06T11:00:17;1.92;;;1.23;;
65636;SDS011;52327;42.622;23.316;2023-08-06T11:02:43;2.90;;;1.10;;
65636;SDS011;52327;42.622;23.316;2023-08-06T11:05:11;1.23;;;0.88;;
65636;SDS011;52327;42.622;23.316;2023-08-06T11:07:37;1.50;;;0.95;;
65636;SDS011;52327;42.622;23.316;2023-08-06T11:10:04;2.20;;;1.50;;
65636;SDS011;52327;42.622;23.316;2023-08-06T11:12:31;0.57;;;0.57;;
65636;SDS011;52327;42.622;23.316;2023-08-06T11:14:57;0.82;;;0.80;;
65636;SDS011;52327;42.622;23.316;2023-08-06T11:17:23;1.63;;;1.23;;
65636;SDS011;52327;42.622;23.316;2023-08-06T11:19:49;1.10;;;0.90;;
65636;SDS011;52327;42.622;23.316;2023-08-06T11:22:15;1.20;;;1.10;;
65636;SDS011;52327;42.622;23.316;2023-08-06T11:24:41;1.70;;;1.02;;
65636;SDS011;52327;42.622;23.316;2023-08-06T11:27:16;0.68;;;0.68;;
65636;SDS011;52327;42.622;23.316;2023-08-06T11:29:43;1.55;;;1.00;;
65636;SDS011;52327;42.622;23.316;2023-08-06T11:32:09;0.60;;;0.60;;
65636;SDS011;52327;42.622;23.316;2023-08-06T11:34:35;0.93;;;0.60;;
65636;SDS011;52327;42.622;23.316;2023-08-06T11:37:04;1.10;;;0.55;;
65636;SDS011;52327;42.622;23.316;2023-08-06T11:39:34;1.13;;;0.95;;
65636;SDS011;52327;42.622;23.316;2023-08-06T11:42:02;0.98;;;0.80;;
65636;SDS011;52327;42.622;23.316;2023-08-06T11:44:32;1.30;;;0.90;;
65636;SDS011;52327;42.622;23.316;2023-08-06T11:47:00;1.05;;;0.85;;
65636;SDS011;52327;42.622;23.316;2023-08-06T11:49:37;6.95;;;1.27;;
65636;SDS011;52327;42.622;23.316;2023-08-06T11:52:14;1.20;;;1.00;;
65636;SDS011;52327;42.622;23.316;2023-08-06T11:54:59;1.48;;;1.02;;
65636;SDS011;52327;42.622;23.316;2023-08-06T11:57:31;1.55;;;0.90;;
65636;SDS011;52327;42.622;23.316;2023-08-06T12:00:00;0.95;;;0.77;;
65636;SDS011;52327;42.622;23.316;2023-08-06T12:02:28;1.35;;;0.80;;
65636;SDS011;52327;42.622;23.316;2023-08-06T12:05:00;2.45;;;1.60;;
65636;SDS011;52327;42.622;23.316;2023-08-06T12:07:28;1.77;;;1.25;;
65636;SDS011;52327;42.622;23.316;2023-08-06T12:09:54;0.90;;;0.70;;
65636;SDS011;52327;42.622;23.316;2023-08-06T12:12:20;1.10;;;0.77;;
65636;SDS011;52327;42.622;23.316;2023-08-06T12:14:45;0.90;;;0.70;;
65636;SDS011;52327;42.622;23.316;2023-08-06T12:17:11;1.00;;;0.80;;
65636;SDS011;52327;42.622;23.316;2023-08-06T12:19:36;1.75;;;1.05;;
65636;SDS011;52327;42.622;23.316;2023-08-06T12:22:02;1.88;;;1.15;;
65636;SDS011;52327;42.622;23.316;2023-08-06T12:24:28;0.95;;;0.85;;
65636;SDS011;52327;42.622;23.316;2023-08-06T12:26:56;2.23;;;1.20;;
65636;SDS011;52327;42.622;23.316;2023-08-06T12:29:27;2.08;;;1.13;;
65636;SDS011;52327;42.622;23.316;2023-08-06T12:31:53;1.58;;;1.25;;
65636;SDS011;52327;42.622;23.316;2023-08-06T12:34:18;1.17;;;0.88;;
65636;SDS011;52327;42.622;23.316;2023-08-06T12:36:44;1.40;;;1.00;;
65636;SDS011;52327;42.622;23.316;2023-08-06T12:39:09;1.45;;;0.95;;
65636;SDS011;52327;42.622;23.316;2023-08-06T12:41:35;2.38;;;1.50;;
65636;SDS011;52327;42.622;23.316;2023-08-06T12:44:01;2.50;;;1.40;;
65636;SDS011;52327;42.622;23.316;2023-08-06T12:46:26;1.27;;;0.93;;
65636;SDS011;52327;42.622;23.316;2023-08-06T12:48:52;2.22;;;1.27;;
65636;SDS011;52327;42.622;23.316;2023-08-06T12:51:17;1.70;;;1.20;;
65636;SDS011;52327;42.622;23.316;2023-08-06T12:53:42;2.05;;;1.17;;
65636;SDS011;52327;42.622;23.316;2023-08-06T12:56:08;0.73;;;0.60;;
65636;SDS011;52327;42.622;23.316;2023-08-06T12:58:34;1.35;;;1.00;;
65636;SDS011;52327;42.622;23.316;2023-08-06T13:00:59;1.85;;;1.10;;
65636;SDS011;52327;42.622;23.316;2023-08-06T13:03:25;3.55;;;1.50;;
65636;SDS011;52327;42.622;23.316;2023-08-06T13:05:50;1.23;;;0.85;;
65636;SDS011;52327;42.622;23.316;2023-08-06T13:08:16;1.58;;;1.25;;
65636;SDS011;52327;42.622;23.316;2023-08-06T13:10:42;1.88;;;1.38;;
65636;SDS011;52327;42.622;23.316;2023-08-06T13:13:08;1.95;;;1.08;;
65636;SDS011;52327;42.622;23.316;2023-08-06T13:15:35;0.98;;;0.70;;
65636;SDS011;52327;42.622;23.316;2023-08-06T13:18:01;0.88;;;0.80;;
65636;SDS011;52327;42.622;23.316;2023-08-06T13:20:26;1.48;;;1.10;;
65636;SDS011;52327;42.622;23.316;2023-08-06T13:22:52;1.30;;;0.90;;
65636;SDS011;52327;42.622;23.316;2023-08-06T13:25:18;1.10;;;0.80;;
65636;SDS011;52327;42.622;23.316;2023-08-06T13:27:44;1.00;;;0.77;;
65636;SDS011;52327;42.622;23.316;2023-08-06T13:30:11;0.95;;;0.68;;
65636;SDS011;52327;42.622;23.316;2023-08-06T13:32:36;1.10;;;0.80;;
65636;SDS011;52327;42.622;23.316;2023-08-06T13:35:04;1.92;;;1.35;;
65636;SDS011;52327;42.622;23.316;2023-08-06T13:37:30;1.17;;;1.05;;
65636;SDS011;52327;42.622;23.316;2023-08-06T13:39:56;1.20;;;1.02;;
65636;SDS011;52327;42.622;23.316;2023-08-06T13:42:21;2.08;;;1.67;;
65636;SDS011;52327;42.622;23.316;2023-08-06T13:44:47;3.67;;;1.42;;
65636;SDS011;52327;42.622;23.316;2023-08-06T13:47:12;1.65;;;1.05;;
65636;SDS011;52327;42.622;23.316;2023-08-06T13:49:38;2.95;;;1.17;;
65636;SDS011;52327;42.622;23.316;2023-08-06T13:52:03;1.58;;;1.02;;
65636;SDS011;52327;42.622;23.316;2023-08-06T13:54:29;4.05;;;1.60;;
65636;SDS011;52327;42.622;23.316;2023-08-06T13:56:55;2.28;;;1.20;;
65636;SDS011;52327;42.622;23.316;2023-08-06T13:59:20;1.88;;;1.38;;
65636;SDS011;52327;42.622;23.316;2023-08-06T14:01:46;1.00;;;0.85;;
65636;SDS011;52327;42.622;23.316;2023-08-06T14:04:12;0.93;;;0.75;;
65636;SDS011;52327;42.622;23.316;2023-08-06T14:06:38;1.08;;;1.00;;
65636;SDS011;52327;42.622;23.316;2023-08-06T14:09:03;2.75;;;1.02;;
65636;SDS011;52327;42.622;23.316;2023-08-06T14:11:29;1.63;;;1.20;;
65636;SDS011;52327;42.622;23.316;2023-08-06T14:13:55;1.05;;;0.90;;
65636;SDS011;52327;42.622;23.316;2023-08-06T14:16:20;4.65;;;1.10;;
65636;SDS011;52327;42.622;23.316;2023-08-06T14:18:46;1.63;;;0.88;;
65636;SDS011;52327;42.622;23.316;2023-08-06T14:21:11;2.05;;;1.00;;
65636;SDS011;52327;42.622;23.316;2023-08-06T14:23:36;1.85;;;1.00;;
65636;SDS011;52327;42.622;23.316;2023-08-06T14:26:02;1.60;;;1.00;;
65636;SDS011;52327;42.622;23.316;2023-08-06T14:28:27;1.88;;;1.27;;
65636;SDS011;52327;42.622;23.316;2023-08-06T14:30:53;2.17;;;0.98;;
65636;SDS011;52327;42.622;23.316;2023-08-06T14:33:18;1.00;;;0.82;;
65636;SDS011;52327;42.622;23.316;2023-08-06T14:35:44;2.33;;;1.25;;
65636;SDS011;52327;42.622;23.316;2023-08-06T14:38:09;2.78;;;1.13;;
65636;SDS011;52327;42.622;23.316;2023-08-06T14:40:35;1.98;;;0.80;;
65636;SDS011;52327;42.622;23.316;2023-08-06T14:43:03;1.33;;;1.15;;